Terminal Aerodrome Forecast
Issued by NWS

Home | Current Version | Previous Version | Text Only | Print | Product List | Glossary Off
Versions: 1 2 3 4 5 6 7 8 9 10 11 12 13 14 15 16 17 18 19 20 21 22 23 24 25 26 27 28

000
FTUS43 KGRB 160525
TAFRHI
TAF
KRHI 160525Z 1606/1706 VRB03KT P6SM BKN250
      TEMPO 1610/1613 3SM BR
     FM161500 13008KT P6SM SCT050 BKN120
     FM170100 11007KT P6SM SCT030 BKN050 PROB30 1703/1706 -SHRA
      BKN030=

USA.gov is the U.S. government's official web portal to all federal, state and local government web resources and services.